Terminal Aerodrome Forecast
Issued by NWS Upton, NY

Home | Current Version | Previous Version | Text Only | Print | Product List | Glossary On
Versions: 1 2 3 4 5 6 7 8 9 10 11 12 13 14 15 16 17 18 19 20 21 22 23 24 25 26 27 28 29 30 31 32 33 34 35 36 37 38 39 40
655
FTUS41 KOKX 281747
TAFISP
TAF
KISP 281747Z 2818/2918 18010KT P6SM SCT060 BKN250
     FM290000 18005KT P6SM SCT050 BKN150
     FM290300 VRB03KT 6SM HZ VCSH SCT030 BKN090
     FM290800 12010G20KT 4SM SHRA SCT005 BKN010
      TEMPO 2908/2911 2SM TSRA OVC005CB
     FM291100 07010KT 3SM SHRA BR OVC010 PROB30 2911/2915 1SM +TSRA
      OVC005CB
     FM291700 35012G18KT 5SM -RA BR OVC015=

USA.gov is the U.S. government's official web portal to all federal, state and local government web resources and services.